createdAt,value
2022-09-12T00:01:35.725Z,3.40
2022-09-12T00:04:02.626Z,5.45
2022-09-12T00:06:38.477Z,3.00
2022-09-12T00:09:09.201Z,4.90
2022-09-12T00:11:41.145Z,4.50
2022-09-12T00:14:09.254Z,6.22
2022-09-12T00:16:36.522Z,4.57
2022-09-12T00:19:04.380Z,6.40
2022-09-12T00:21:33.376Z,6.60
2022-09-12T00:24:00.250Z,6.28
2022-09-12T00:26:27.179Z,6.28
2022-09-12T00:28:53.789Z,7.07
2022-09-12T00:31:26.294Z,3.88
2022-09-12T00:33:55.029Z,6.00
2022-09-12T00:36:23.982Z,6.35
2022-09-12T00:38:51.498Z,5.43
2022-09-12T00:41:39.460Z,5.85
2022-09-12T00:44:24.220Z,4.40
2022-09-12T00:47:00.728Z,5.75
2022-09-12T00:49:29.311Z,6.22
2022-09-12T00:52:10.442Z,9.68
2022-09-12T00:54:47.595Z,8.48
2022-09-12T00:57:17.342Z,12.07
2022-09-12T00:59:58.525Z,6.97
2022-09-12T01:02:25.721Z,7.07
2022-09-12T01:04:52.965Z,10.05
2022-09-12T01:07:21.127Z,4.30
2022-09-12T01:09:47.862Z,6.45
2022-09-12T01:12:16.029Z,6.40
2022-09-12T01:14:42.774Z,6.50
2022-09-12T01:17:12.818Z,3.15
2022-09-12T01:19:52.189Z,5.03
2022-09-12T01:22:44.933Z,3.28
2022-09-12T01:25:24.327Z,8.15
2022-09-12T01:28:24.675Z,5.50
2022-09-12T01:30:55.386Z,6.30
2022-09-12T01:33:34.441Z,6.10
2022-09-12T01:36:25.779Z,3.97
2022-09-12T01:39:10.451Z,5.88
2022-09-12T01:42:10.075Z,6.88
2022-09-12T01:45:03.358Z,7.07
2022-09-12T01:47:50.314Z,3.00
2022-09-12T01:50:22.783Z,4.00
2022-09-12T01:53:00.436Z,3.38
2022-09-12T01:55:49.779Z,4.18
2022-09-12T01:58:21.743Z,5.70
2022-09-12T02:00:55.883Z,3.63
2022-09-12T02:03:29.230Z,4.72
2022-09-12T02:06:08.511Z,9.95
2022-09-12T02:08:44.211Z,3.85
2022-09-12T02:11:12.586Z,3.42
2022-09-12T02:13:53.506Z,4.15
2022-09-12T02:16:28.984Z,5.65
2022-09-12T02:19:00.452Z,5.85
2022-09-12T02:21:32.769Z,2.92
2022-09-12T02:24:02.947Z,5.75
2022-09-12T02:26:36.464Z,6.80
2022-09-12T02:29:04.460Z,4.30
2022-09-12T02:31:36.438Z,5.18
2022-09-12T02:34:11.389Z,5.60
2022-09-12T02:37:02.205Z,5.38
2022-09-12T02:39:29.212Z,4.35
2022-09-12T02:41:59.151Z,3.70
2022-09-12T02:44:28.097Z,7.90
2022-09-12T02:47:01.098Z,3.53
2022-09-12T02:49:27.697Z,4.17
2022-09-12T02:51:54.443Z,4.18
2022-09-12T02:54:21.647Z,3.65
2022-09-12T02:56:48.294Z,2.92
2022-09-12T02:59:19.227Z,3.38
2022-09-12T03:02:11.750Z,3.63
2022-09-12T03:04:41.364Z,3.05
2022-09-12T03:07:38.727Z,3.25
2022-09-12T03:10:35.946Z,3.50
2022-09-12T03:13:17.555Z,5.38
2022-09-12T03:16:11.857Z,4.68
2022-09-12T03:19:10.384Z,6.20
2022-09-12T03:22:07.014Z,2.88
2022-09-12T03:24:38.407Z,4.03
2022-09-12T03:27:14.007Z,3.53
2022-09-12T03:29:43.158Z,3.95
2022-09-12T03:32:09.761Z,5.15
2022-09-12T03:34:36.423Z,4.72
2022-09-12T03:37:03.349Z,5.72
2022-09-12T03:39:31.325Z,3.28
2022-09-12T03:41:58.057Z,3.35
2022-09-12T03:44:25.488Z,3.85
2022-09-12T03:46:52.218Z,3.83
2022-09-12T03:49:18.920Z,6.45
2022-09-12T03:51:45.534Z,3.30
2022-09-12T03:54:12.400Z,2.83
2022-09-12T03:56:41.490Z,4.32
2022-09-12T03:59:08.173Z,3.13
2022-09-12T04:01:35.011Z,5.38
2022-09-12T04:04:01.736Z,4.05
2022-09-12T04:06:28.329Z,2.92
2022-09-12T04:08:55.484Z,3.35
2022-09-12T04:11:23.030Z,3.83
2022-09-12T04:13:50.206Z,7.47
2022-09-12T04:16:17.874Z,2.53
2022-09-12T04:18:45.166Z,4.57
2022-09-12T04:21:15.332Z,3.33
2022-09-12T04:23:42.682Z,2.90
2022-09-12T04:26:10.040Z,5.00
2022-09-12T04:28:38.101Z,3.55
2022-09-12T04:31:12.207Z,4.95
2022-09-12T04:33:38.836Z,4.32
2022-09-12T04:36:07.875Z,4.70
2022-09-12T04:38:36.054Z,4.00
2022-09-12T04:41:33.693Z,4.13
2022-09-12T04:44:03.369Z,3.15
2022-09-12T04:46:39.123Z,6.93
2022-09-12T04:49:06.098Z,3.38
2022-09-12T04:51:35.910Z,4.18
2022-09-12T04:54:10.297Z,3.60
2022-09-12T04:56:39.259Z,4.07
2022-09-12T04:59:06.839Z,4.22
2022-09-12T05:01:33.602Z,3.72
2022-09-12T05:04:00.304Z,4.93
2022-09-12T05:06:29.929Z,5.13
2022-09-12T05:08:58.371Z,3.50
2022-09-12T05:11:41.143Z,3.53
2022-09-12T05:14:14.246Z,2.90
2022-09-12T05:16:41.165Z,4.45
2022-09-12T05:19:09.159Z,3.65
2022-09-12T05:21:35.722Z,4.05
2022-09-12T05:24:02.600Z,5.90
2022-09-12T05:26:29.319Z,4.45
2022-09-12T05:28:56.558Z,4.65
2022-09-12T05:31:25.579Z,3.65
2022-09-12T05:33:54.265Z,2.28
2022-09-12T05:36:23.943Z,6.63
2022-09-12T05:38:51.148Z,2.55
2022-09-12T05:41:24.693Z,2.92
2022-09-12T05:46:25.753Z,4.50
2022-09-12T05:48:56.348Z,9.50
2022-09-12T05:51:28.314Z,4.85
2022-09-12T05:53:57.389Z,3.42
2022-09-12T05:56:27.260Z,4.90
2022-09-12T05:59:05.474Z,3.75
2022-09-12T06:01:34.228Z,8.00
2022-09-12T06:04:03.942Z,5.25
2022-09-12T06:09:02.973Z,7.10
2022-09-12T06:11:33.147Z,7.03
2022-09-12T06:14:00.303Z,6.00
2022-09-12T06:16:29.688Z,6.80
2022-09-12T06:18:58.807Z,5.72
2022-09-12T06:21:26.900Z,5.43
2022-09-12T06:23:58.808Z,6.05
2022-09-12T06:26:26.030Z,5.70
2022-09-12T06:28:54.582Z,5.07
2022-09-12T06:31:25.181Z,5.00
2022-09-12T06:33:53.572Z,4.03
2022-09-12T06:36:22.954Z,5.63
2022-09-12T06:38:58.294Z,5.10
2022-09-12T06:41:26.791Z,5.40
2022-09-12T06:43:54.054Z,5.32
2022-09-12T06:46:21.619Z,4.55
2022-09-12T06:48:48.881Z,3.05
2022-09-12T06:51:17.498Z,4.07
2022-09-12T06:53:45.273Z,2.92
2022-09-12T06:56:12.270Z,5.30
2022-09-12T06:58:39.716Z,6.55
2022-09-12T07:01:14.112Z,4.65
2022-09-12T07:03:41.612Z,4.15
2022-09-12T07:06:12.474Z,5.28
2022-09-12T07:08:40.784Z,4.80
2022-09-12T07:11:20.835Z,4.45
2022-09-12T07:13:51.759Z,6.35
2022-09-12T07:16:20.107Z,5.80
2022-09-12T07:18:58.034Z,5.68
2022-09-12T07:21:25.166Z,7.88
2022-09-12T07:23:52.656Z,3.90
2022-09-12T07:26:19.823Z,5.93
2022-09-12T07:28:51.985Z,6.80
2022-09-12T07:31:19.585Z,4.65
2022-09-12T07:33:51.181Z,5.05
2022-09-12T07:36:22.395Z,6.88
2022-09-12T07:38:57.203Z,6.60
2022-09-12T07:41:26.373Z,6.82
2022-09-12T07:43:54.212Z,7.90
2022-09-12T07:46:22.344Z,4.63
2022-09-12T07:48:51.085Z,6.53
2022-09-12T07:51:18.901Z,4.38
2022-09-12T07:53:46.360Z,6.20
2022-09-12T07:56:13.630Z,6.20
2022-09-12T07:58:41.785Z,8.60
2022-09-12T08:01:10.443Z,6.55
2022-09-12T08:03:37.616Z,7.72
2022-09-12T08:06:08.790Z,8.25
2022-09-12T08:08:36.366Z,11.23
2022-09-12T08:11:05.900Z,8.48
2022-09-12T08:13:33.809Z,8.07
2022-09-12T08:16:02.292Z,6.88
2022-09-12T08:18:30.321Z,7.38
2022-09-12T08:21:01.314Z,5.68
2022-09-12T08:23:29.288Z,6.18
2022-09-12T08:25:58.915Z,6.45
2022-09-12T08:28:26.682Z,6.25
2022-09-12T08:30:54.273Z,4.75
2022-09-12T08:33:22.139Z,3.97
2022-09-12T08:35:49.148Z,3.75
2022-09-12T08:38:16.309Z,2.05
2022-09-12T08:40:55.679Z,11.77
2022-09-12T08:43:45.422Z,6.18
2022-09-12T08:46:18.928Z,4.43
2022-09-12T08:48:46.964Z,4.10
2022-09-12T08:51:15.912Z,3.28
2022-09-12T08:53:44.356Z,4.03
2022-09-12T08:56:12.440Z,5.25
2022-09-12T08:58:41.099Z,4.93
2022-09-12T09:01:11.853Z,6.72
2022-09-12T09:03:44.117Z,4.07
2022-09-12T09:06:16.479Z,3.80
2022-09-12T09:08:43.576Z,6.63
2022-09-12T09:11:10.543Z,4.38
2022-09-12T09:14:08.168Z,3.47
2022-09-12T09:16:37.016Z,4.25
2022-09-12T09:19:11.204Z,6.30
2022-09-12T09:21:41.893Z,4.25
2022-09-12T09:24:18.362Z,4.85
2022-09-12T09:27:23.615Z,7.60
2022-09-12T09:29:56.481Z,8.70
2022-09-12T09:32:27.693Z,3.90
2022-09-12T09:34:54.760Z,3.63
2022-09-12T09:37:37.089Z,6.55
2022-09-12T09:40:16.158Z,5.53
2022-09-12T09:42:46.708Z,3.17
2022-09-12T09:45:19.731Z,3.53
2022-09-12T09:47:49.623Z,5.80
2022-09-12T09:50:17.565Z,5.25
2022-09-12T09:52:44.648Z,3.20
2022-09-12T09:55:14.462Z,2.80
2022-09-12T09:57:42.382Z,4.03
2022-09-12T10:00:26.886Z,3.20
2022-09-12T10:03:13.942Z,1.88
2022-09-12T10:05:51.923Z,4.20
2022-09-12T10:08:29.105Z,4.90
2022-09-12T10:10:58.315Z,2.45
2022-09-12T10:13:32.305Z,3.88
2022-09-12T10:16:00.857Z,4.45
2022-09-12T10:18:39.272Z,3.83
2022-09-12T10:21:14.336Z,4.57
2022-09-12T10:23:42.364Z,5.28
2022-09-12T10:26:11.311Z,3.47
2022-09-12T10:28:40.393Z,3.35
2022-09-12T10:31:08.595Z,5.82
2022-09-12T10:33:47.665Z,3.70
2022-09-12T10:36:15.592Z,2.53
2022-09-12T10:38:49.340Z,8.18
2022-09-12T10:41:16.484Z,4.65
2022-09-12T10:43:43.786Z,5.85
2022-09-12T10:46:16.698Z,2.53
2022-09-12T10:48:45.193Z,3.30
2022-09-12T10:51:24.445Z,4.00
2022-09-12T10:53:52.459Z,2.58
2022-09-12T10:56:19.477Z,3.80
2022-09-12T10:59:00.260Z,3.13
2022-09-12T11:01:36.566Z,3.22
2022-09-12T11:04:09.601Z,3.50
2022-09-12T11:06:43.871Z,2.40
2022-09-12T11:09:17.664Z,4.43
2022-09-12T11:11:44.678Z,5.03
2022-09-12T11:14:15.847Z,6.00
2022-09-12T11:16:46.038Z,4.03
2022-09-12T11:19:28.582Z,3.25
2022-09-12T11:22:05.284Z,2.83
2022-09-12T11:24:47.294Z,3.00
2022-09-12T11:27:23.531Z,5.03
2022-09-12T11:29:52.884Z,6.97
2022-09-12T11:32:32.732Z,4.82
2022-09-12T11:35:02.488Z,3.47
2022-09-12T11:37:29.426Z,3.15
2022-09-12T11:39:58.018Z,3.65
2022-09-12T11:42:32.294Z,3.10
2022-09-12T11:45:06.095Z,5.38
2022-09-12T11:47:35.027Z,4.85
2022-09-12T11:50:05.416Z,3.28
2022-09-12T11:52:36.944Z,3.22
2022-09-12T11:55:10.983Z,3.15
2022-09-12T11:57:53.550Z,3.78
2022-09-12T12:00:20.694Z,2.20
2022-09-12T12:03:00.720Z,2.80
2022-09-12T12:05:43.009Z,4.30
2022-09-12T12:08:11.169Z,3.17
2022-09-12T12:10:42.411Z,3.30
2022-09-12T12:13:21.816Z,3.38
2022-09-12T12:15:51.243Z,2.70
2022-09-12T12:18:19.990Z,4.22
2022-09-12T12:20:47.219Z,3.00
2022-09-12T12:23:34.182Z,3.00
2022-09-12T12:26:02.699Z,3.13
2022-09-12T12:28:50.352Z,3.05
2022-09-12T12:31:18.223Z,4.35
2022-09-12T12:33:45.295Z,2.03
2022-09-12T12:36:30.478Z,3.88
2022-09-12T12:38:57.596Z,2.08
2022-09-12T12:41:27.752Z,3.80
2022-09-12T12:43:57.492Z,3.42
2022-09-12T12:46:27.898Z,3.97
2022-09-12T12:49:17.890Z,8.00
2022-09-12T12:51:49.914Z,3.42
2022-09-12T12:54:29.267Z,4.80
2022-09-12T12:57:04.159Z,3.25
2022-09-12T12:59:31.601Z,6.32
2022-09-12T13:01:59.965Z,3.55
2022-09-12T13:04:29.514Z,3.15
2022-09-12T13:07:08.358Z,2.63
2022-09-12T13:09:44.720Z,3.92
2022-09-12T13:12:24.184Z,2.55
2022-09-12T13:14:59.247Z,6.07
2022-09-12T13:17:26.318Z,3.65
2022-09-12T13:20:27.915Z,3.72
2022-09-12T13:22:55.943Z,3.60
2022-09-12T13:25:29.070Z,4.93
2022-09-12T13:28:13.698Z,4.90
2022-09-12T13:30:43.977Z,5.22
2022-09-12T13:33:18.633Z,3.47
2022-09-12T13:35:51.658Z,2.65
2022-09-12T13:38:41.759Z,3.53
2022-09-12T13:41:30.856Z,2.97
2022-09-12T13:43:57.826Z,2.72
2022-09-12T13:46:30.130Z,4.60
2022-09-12T13:48:58.879Z,4.93
2022-09-12T13:51:28.675Z,2.88
2022-09-12T13:53:58.683Z,3.00
2022-09-12T13:56:25.757Z,2.15
2022-09-12T13:59:00.848Z,2.35
2022-09-12T14:01:42.759Z,2.25
2022-09-12T14:04:34.338Z,3.97
2022-09-12T14:07:22.260Z,1.38
2022-09-12T14:09:58.152Z,3.28
2022-09-12T14:12:43.852Z,3.88
2022-09-12T14:15:22.142Z,2.58
2022-09-12T14:17:51.988Z,1.77
2022-09-12T14:20:20.462Z,5.50
2022-09-12T14:22:50.995Z,1.60
2022-09-12T14:25:23.564Z,2.17
2022-09-12T14:27:55.227Z,2.35
2022-09-12T14:30:23.933Z,1.75
2022-09-12T14:33:12.142Z,3.35
2022-09-12T14:36:06.613Z,1.80
2022-09-12T14:39:03.766Z,3.13
2022-09-12T14:41:40.703Z,2.58
2022-09-12T14:44:16.428Z,3.10
2022-09-12T14:46:44.913Z,3.72
2022-09-12T14:49:23.352Z,2.55
2022-09-12T14:52:01.602Z,3.22
2022-09-12T14:54:28.289Z,4.03
2022-09-12T14:56:57.529Z,4.72
2022-09-12T14:59:35.823Z,1.80
2022-09-12T15:02:21.085Z,1.73
2022-09-12T15:05:16.064Z,2.35
2022-09-12T15:07:54.034Z,1.83
2022-09-12T15:10:37.603Z,2.88
2022-09-12T15:13:10.323Z,1.92
2022-09-12T15:15:38.487Z,3.17
2022-09-12T15:18:06.973Z,2.92
2022-09-12T15:20:36.561Z,3.13
2022-09-12T15:23:03.329Z,3.08
2022-09-12T15:25:30.002Z,3.22
2022-09-12T15:27:56.671Z,5.07
2022-09-12T15:30:23.741Z,2.72
2022-09-12T15:32:50.295Z,1.95
2022-09-12T15:35:19.130Z,2.35
2022-09-12T15:37:45.789Z,3.47
2022-09-12T15:40:13.155Z,2.35
2022-09-12T15:42:40.259Z,2.28
2022-09-12T15:45:19.857Z,2.25
2022-09-12T15:47:46.596Z,3.13
2022-09-12T15:50:13.563Z,1.90
2022-09-12T15:52:41.252Z,2.28
2022-09-12T15:55:23.181Z,2.85
2022-09-12T15:57:50.254Z,3.08
2022-09-12T16:00:18.002Z,2.25
2022-09-12T16:02:46.725Z,2.70
2022-09-12T16:05:16.973Z,2.03
2022-09-12T16:07:44.619Z,2.55
2022-09-12T16:10:19.100Z,2.97
2022-09-12T16:12:46.149Z,6.00
2022-09-12T16:15:21.353Z,2.13
2022-09-12T16:17:47.963Z,3.05
2022-09-12T16:20:14.869Z,2.20
2022-09-12T16:22:42.146Z,2.40
2022-09-12T16:25:09.098Z,1.92
2022-09-12T16:27:36.760Z,2.50
2022-09-12T16:30:06.060Z,2.55
2022-09-12T16:32:33.053Z,2.13
2022-09-12T16:34:59.742Z,5.63
2022-09-12T16:37:26.461Z,3.05
2022-09-12T16:39:53.709Z,7.80
2022-09-12T16:42:20.440Z,2.85
2022-09-12T16:44:47.193Z,2.13
2022-09-12T16:47:14.602Z,3.55
2022-09-12T16:49:41.252Z,2.15
2022-09-12T16:52:08.061Z,4.88
2022-09-12T16:54:34.831Z,2.13
2022-09-12T16:57:01.528Z,2.60
2022-09-12T16:59:28.108Z,3.53
2022-09-12T17:01:54.717Z,2.92
2022-09-12T17:04:23.712Z,5.50
2022-09-12T17:06:50.457Z,3.45
2022-09-12T17:09:18.597Z,6.88
2022-09-12T17:11:47.672Z,5.63
2022-09-12T17:14:14.292Z,4.70
2022-09-12T17:16:46.933Z,3.17
2022-09-12T17:19:23.552Z,5.65
2022-09-12T17:21:50.243Z,5.03
2022-09-12T17:24:17.976Z,4.03
2022-09-12T17:26:45.376Z,5.05
2022-09-12T17:29:15.812Z,4.53
2022-09-12T17:31:43.820Z,3.80
2022-09-12T17:34:14.233Z,6.65
2022-09-12T17:36:44.069Z,5.30
2022-09-12T17:39:11.652Z,5.28
2022-09-12T17:41:38.430Z,8.13
2022-09-12T17:44:07.253Z,4.97
2022-09-12T17:46:36.526Z,9.20
2022-09-12T17:49:05.988Z,9.80
2022-09-12T17:51:33.020Z,5.93
2022-09-12T17:54:09.951Z,9.23
2022-09-12T17:56:37.655Z,7.05
2022-09-12T17:59:06.171Z,10.13
2022-09-12T18:01:51.973Z,7.05
2022-09-12T18:04:20.008Z,5.38
2022-09-12T18:06:48.730Z,9.32
2022-09-12T18:09:18.641Z,6.18
2022-09-12T18:11:46.105Z,8.80
2022-09-12T18:14:14.358Z,6.00
2022-09-12T18:16:41.829Z,7.93
2022-09-12T18:19:08.555Z,5.85
2022-09-12T18:21:35.231Z,8.13
2022-09-12T18:24:02.941Z,7.22
2022-09-12T18:26:30.722Z,5.05
2022-09-12T18:28:58.207Z,7.35
2022-09-12T18:31:28.668Z,8.45
2022-09-12T18:33:55.960Z,8.57
2022-09-12T18:36:22.685Z,6.85
2022-09-12T18:38:49.667Z,6.95
2022-09-12T18:41:21.924Z,6.53
2022-09-12T18:43:49.394Z,7.47
2022-09-12T18:46:18.498Z,6.88
2022-09-12T18:48:46.020Z,7.30
2022-09-12T18:51:18.527Z,7.57
2022-09-12T18:53:51.981Z,7.82
2022-09-12T18:56:19.608Z,7.43
2022-09-12T18:58:53.690Z,8.70
2022-09-12T19:01:25.638Z,7.07
2022-09-12T19:03:53.379Z,7.45
2022-09-12T19:06:22.787Z,9.65
2022-09-12T19:08:50.604Z,9.07
2022-09-12T19:11:17.860Z,8.00
2022-09-12T19:13:46.210Z,8.55
2022-09-12T19:16:22.619Z,9.65
2022-09-12T19:18:49.839Z,6.22
2022-09-12T19:21:22.395Z,7.97
2022-09-12T19:23:49.828Z,7.70
2022-09-12T19:26:17.871Z,7.93
2022-09-12T19:28:45.304Z,6.65
2022-09-12T19:31:14.946Z,11.63
2022-09-12T19:33:42.202Z,9.93
2022-09-12T19:36:27.544Z,8.18
2022-09-12T19:38:58.644Z,9.50
2022-09-12T19:41:25.385Z,8.60
2022-09-12T19:43:51.982Z,8.73
2022-09-12T19:46:23.373Z,9.55
2022-09-12T19:48:50.115Z,9.98
2022-09-12T19:51:17.606Z,9.07
2022-09-12T19:53:44.733Z,8.55
2022-09-12T19:56:13.917Z,11.95
2022-09-12T19:58:46.524Z,7.53
2022-09-12T20:01:24.956Z,9.55
2022-09-12T20:03:53.688Z,8.07
2022-09-12T20:06:20.484Z,9.82
2022-09-12T20:08:47.307Z,11.07
2022-09-12T20:11:17.359Z,10.40
2022-09-12T20:13:44.836Z,15.82
2022-09-12T20:16:20.546Z,13.57
2022-09-12T20:18:49.314Z,8.52
2022-09-12T20:21:21.986Z,8.82
2022-09-12T20:23:48.678Z,11.23
2022-09-12T20:26:15.533Z,12.00
2022-09-12T20:28:42.279Z,13.05
2022-09-12T20:31:14.412Z,9.63
2022-09-12T20:33:41.684Z,11.18
2022-09-12T20:36:14.552Z,11.05
2022-09-12T20:38:42.690Z,8.07
2022-09-12T20:41:10.871Z,8.35
2022-09-12T20:43:40.878Z,9.35
2022-09-12T20:46:12.281Z,12.75
2022-09-12T20:48:39.222Z,9.55
2022-09-12T20:51:07.030Z,10.35
2022-09-12T20:53:35.184Z,10.55
2022-09-12T20:56:02.586Z,8.40
2022-09-12T20:58:29.141Z,17.25
2022-09-12T21:00:55.804Z,11.73
2022-09-12T21:03:22.572Z,13.85
2022-09-12T21:05:49.129Z,11.77
2022-09-12T21:08:15.832Z,10.32
2022-09-12T21:10:43.911Z,8.70
2022-09-12T21:13:11.346Z,12.50
2022-09-12T21:15:39.594Z,8.23
2022-09-12T21:18:06.388Z,11.82
2022-09-12T21:20:33.083Z,9.85
2022-09-12T21:23:00.232Z,11.18
2022-09-12T21:25:28.823Z,10.48
2022-09-12T21:27:55.451Z,10.15
2022-09-12T21:30:22.322Z,13.20
2022-09-12T21:32:48.957Z,10.95
2022-09-12T21:35:15.601Z,10.40
2022-09-12T21:37:42.149Z,9.98
2022-09-12T21:40:09.096Z,8.63
2022-09-12T21:42:35.705Z,10.45
2022-09-12T21:45:02.389Z,10.07
2022-09-12T21:47:29.047Z,9.35
2022-09-12T21:49:55.671Z,12.30
2022-09-12T21:52:22.247Z,9.38
2022-09-12T21:54:48.900Z,9.65
2022-09-12T21:57:15.587Z,7.55
2022-09-12T21:59:42.288Z,6.78
2022-09-12T22:02:10.137Z,8.07
2022-09-12T22:04:36.700Z,7.90
2022-09-12T22:07:03.330Z,10.45
2022-09-12T22:09:30.097Z,9.30
2022-09-12T22:11:56.686Z,9.63
2022-09-12T22:14:23.488Z,10.13
2022-09-12T22:16:50.052Z,10.88
2022-09-12T22:19:16.659Z,8.52
2022-09-12T22:22:03.242Z,7.82
2022-09-12T22:24:29.847Z,8.80
2022-09-12T22:26:59.027Z,8.45
2022-09-12T22:29:26.509Z,9.75
2022-09-12T22:31:53.638Z,9.40
2022-09-12T22:34:20.279Z,9.93
2022-09-12T22:36:48.606Z,9.38
2022-09-12T22:39:15.547Z,9.27
2022-09-12T22:41:42.176Z,9.98
2022-09-12T22:44:10.449Z,12.27
2022-09-12T22:46:37.901Z,11.13
2022-09-12T22:49:05.736Z,8.38
2022-09-12T22:51:32.921Z,10.07
2022-09-12T22:53:59.852Z,9.73
2022-09-12T22:56:27.453Z,9.80
2022-09-12T22:58:54.153Z,11.30
2022-09-12T23:01:21.111Z,9.13
2022-09-12T23:03:47.789Z,9.23
2022-09-12T23:06:14.595Z,8.18
2022-09-12T23:08:41.393Z,8.63
2022-09-12T23:11:10.799Z,10.65
2022-09-12T23:13:38.274Z,9.60
2022-09-12T23:16:07.057Z,9.70
2022-09-12T23:18:37.272Z,7.93
2022-09-12T23:21:08.572Z,11.52
2022-09-12T23:23:35.846Z,7.55
2022-09-12T23:26:08.238Z,8.25
2022-09-12T23:28:35.524Z,8.63
2022-09-12T23:31:02.665Z,7.88
2022-09-12T23:33:30.876Z,9.55
2022-09-12T23:36:06.303Z,7.45
2022-09-12T23:38:34.890Z,6.50
2022-09-12T23:41:03.197Z,6.57
2022-09-12T23:43:30.667Z,8.57
2022-09-12T23:45:57.891Z,8.52
2022-09-12T23:48:25.065Z,8.68
2022-09-12T23:50:52.662Z,8.55
2022-09-12T23:53:20.220Z,8.75
2022-09-12T23:55:47.506Z,7.72
2022-09-12T23:58:14.870Z,7.78
